Time;durP1;ratioP1;P1;durP2;ratioP2;P2;SDS_P1;SDS_P2;PMS_P1;PMS_P2;Temp;Humidity;BMP_temperature;BMP_pressure;BME280_temperature;BME280_humidity;BME280_pressure;Samples;Min_cycle;Max_cycle;Signal;HPM_P1;HPM_P2
2022/09/04 00:01:47;;;;;;;4.30;2.38;;;16.40;99.60;;;;;;5071690;28;20453;-72
2022/09/04 00:04:43;;;;;;;4.17;2.13;;;16.80;99.40;;;;;;5073086;28;20114;-73
2022/09/04 00:07:29;;;;;;;5.28;2.20;;;16.60;99.30;;;;;;5072440;28;20275;-71
2022/09/04 00:10:13;;;;;;;5.63;2.58;;;16.20;99.00;;;;;;5072818;28;20087;-71
2022/09/04 00:12:55;;;;;;;3.80;2.03;;;16.30;98.90;;;;;;5072334;28;20061;-74
2022/09/04 00:15:32;;;;;;;4.15;2.17;;;16.50;99.20;;;;;;5071547;28;20049;-75
2022/09/04 00:17:57;;;;;;;3.25;2.22;;;16.10;99.60;;;;;;5072615;28;20139;-73
2022/09/04 00:20:33;;;;;;;;;;;16.20;99.50;;;;;;5073107;28;20152;-73
2022/09/04 00:23:11;;;;;;;5.07;2.40;;;16.00;99.50;;;;;;5072440;28;19978;-74
2022/09/04 00:25:56;;;;;;;3.90;2.05;;;16.70;99.30;;;;;;5071227;28;20441;-68
2022/09/04 00:28:37;;;;;;;3.97;2.17;;;16.00;99.90;;;;;;5071296;28;20048;-74
2022/09/04 00:31:20;;;;;;;5.10;2.05;;;16.30;99.90;;;;;;5071961;28;20145;-75
2022/09/04 00:33:53;;;;;;;4.05;2.20;;;16.30;99.40;;;;;;5071309;28;20048;-74
2022/09/04 00:36:23;;;;;;;2.50;2.00;;;16.20;99.30;;;;;;5072260;28;20123;-71
2022/09/04 00:39:08;;;;;;;3.83;2.30;;;16.00;99.90;;;;;;5072154;28;20044;-73
2022/09/04 00:42:02;;;;;;;2.95;2.30;;;16.00;99.50;;;;;;5072207;28;20055;-74
2022/09/04 00:44:48;;;;;;;3.25;2.13;;;16.10;99.90;;;;;;5060488;28;20063;-70
2022/09/04 00:47:14;;;;;;;3.83;2.28;;;15.70;99.70;;;;;;5072202;28;20076;-73
2022/09/04 00:50:06;;;;;;;6.10;2.17;;;15.70;99.90;;;;;;5072174;28;20531;-74
2022/09/04 00:52:53;;;;;;;3.97;2.38;;;16.00;99.90;;;;;;5071255;28;20060;-72
2022/09/04 00:55:41;;;;;;;3.10;2.10;;;15.90;99.90;;;;;;5072067;28;20055;-73
2022/09/04 00:58:31;;;;;;;2.63;1.90;;;16.10;99.90;;;;;;5067932;28;20087;-73
2022/09/04 01:00:58;;;;;;;6.13;2.28;;;15.60;99.90;;;;;;5072150;28;20052;-74
2022/09/04 01:03:50;;;;;;;3.60;2.40;;;15.70;99.90;;;;;;5072049;28;20106;-71
2022/09/04 01:06:42;;;;;;;3.53;2.13;;;15.60;99.90;;;;;;5060322;28;20511;-71
2022/09/04 01:09:23;;;;;;;5.38;2.25;;;15.60;99.90;;;;;;5070760;28;20179;-72
2022/09/04 01:12:05;;;;;;;3.72;1.95;;;15.70;99.90;;;;;;5071700;28;20055;-71
2022/09/04 01:15:00;;;;;;;6.25;2.40;;;15.50;99.90;;;;;;5071874;28;20052;-74
2022/09/04 01:17:31;;;;;;;3.60;2.30;;;15.70;99.90;;;;;;5051986;28;20160;-73
2022/09/04 01:20:21;;;;;;;3.80;2.40;;;15.10;99.90;;;;;;5071823;28;20091;-72
2022/09/04 01:22:50;;;;;;;4.22;2.05;;;15.20;99.90;;;;;;5071911;28;20129;-73
2022/09/04 01:25:53;;;;;;;3.08;2.08;;;15.30;99.90;;;;;;5071522;28;20059;-74
2022/09/04 01:28:38;;;;;;;3.20;2.08;;;15.50;99.90;;;;;;5071812;28;20123;-73
2022/09/04 01:31:30;;;;;;;8.07;2.70;;;15.60;99.90;;;;;;5071825;28;20052;-72
2022/09/04 01:34:24;;;;;;;4.40;2.17;;;15.30;99.90;;;;;;5071630;28;20159;-71
2022/09/04 01:37:15;;;;;;;2.83;2.10;;;15.10;99.90;;;;;;5071801;28;20050;-71
2022/09/04 01:39:45;;;;;;;5.82;2.30;;;15.30;99.90;;;;;;5067972;28;20060;-74
2022/09/04 01:42:25;;;;;;;4.82;2.17;;;15.40;99.90;;;;;;5070303;28;20678;-74
2022/09/04 01:44:51;;;;;;;4.47;2.35;;;15.30;99.90;;;;;;5071719;28;20182;-71
2022/09/04 01:47:35;;;;;;;;;;;15.20;99.90;;;;;;5072031;28;20129;-74
2022/09/04 01:50:24;;;;;;;3.92;2.08;;;15.10;99.90;;;;;;5071644;28;19978;-69
2022/09/04 01:52:57;;;;;;;3.17;2.35;;;15.20;99.90;;;;;;5071552;28;20509;-70
2022/09/04 01:55:56;;;;;;;3.35;2.35;;;15.00;99.90;;;;;;5071323;28;20045;-72
2022/09/04 01:58:22;;;;;;;5.70;2.55;;;15.00;99.90;;;;;;5069911;28;20067;-71
2022/09/04 02:01:02;;;;;;;3.75;2.22;;;15.20;99.90;;;;;;5071504;28;20052;-71
2022/09/04 02:04:06;;;;;;;3.13;2.50;;;15.30;99.90;;;;;;5071497;28;20404;-74
2022/09/04 02:07:12;;;;;;;3.90;2.33;;;15.30;99.90;;;;;;5071150;28;20044;-74
2022/09/04 02:10:05;;;;;;;3.88;2.65;;;14.80;99.90;;;;;;5071383;28;20111;-72
2022/09/04 02:12:34;;;;;;;4.93;2.20;;;15.00;99.90;;;;;;5070392;28;20511;-73
2022/09/04 02:15:20;;;;;;;3.78;2.25;;;15.10;99.90;;;;;;5071292;28;20066;-69
2022/09/04 02:17:58;;;;;;;2.95;2.42;;;14.80;99.90;;;;;;5070281;28;20059;-74
2022/09/04 02:20:27;;;;;;;2.83;2.40;;;15.00;99.90;;;;;;5069985;28;20051;-73
2022/09/04 02:23:16;;;;;;;8.73;2.35;;;15.00;99.90;;;;;;5071006;28;20036;-75
2022/09/04 02:25:58;;;;;;;3.10;2.22;;;14.60;99.90;;;;;;5071327;28;20040;-72
2022/09/04 02:28:26;;;;;;;6.22;2.65;;;15.00;99.90;;;;;;5071534;28;20052;-72
2022/09/04 02:31:07;;;;;;;5.15;2.60;;;15.20;99.90;;;;;;5071820;28;20152;-73
2022/09/04 02:33:53;;;;;;;4.85;2.50;;;14.80;99.90;;;;;;5074739;28;20080;-75
2022/09/04 02:36:40;;;;;;;5.30;2.42;;;15.10;99.90;;;;;;5074798;28;20055;-73
2022/09/04 02:39:39;;;;;;;4.68;2.30;;;14.80;99.90;;;;;;5074542;28;20473;-75
2022/09/04 02:42:24;;;;;;;4.82;2.42;;;15.00;99.90;;;;;;5075002;28;20059;-73
2022/09/04 02:45:01;;;;;;;5.30;2.30;;;14.80;99.90;;;;;;5073338;28;20059;-74
2022/09/04 02:48:03;;;;;;;5.97;2.58;;;14.80;99.90;;;;;;5074566;28;20049;-73
2022/09/04 02:50:32;;;;;;;14.55;2.72;;;14.70;99.90;;;;;;5070027;28;20488;-72
2022/09/04 02:53:18;;;;;;;4.80;2.58;;;14.70;99.90;;;;;;5074077;28;20048;-71
2022/09/04 02:56:08;;;;;;;4.32;2.88;;;14.40;99.90;;;;;;5074512;28;20053;-68
2022/09/04 02:59:10;;;;;;;2.78;2.38;;;14.60;99.90;;;;;;5073168;28;20106;-71
2022/09/04 03:01:58;;;;;;;3.78;2.38;;;14.70;99.90;;;;;;5067035;28;20143;-73
2022/09/04 03:04:48;;;;;;;6.63;2.65;;;14.90;99.90;;;;;;5074275;28;20465;-74
2022/09/04 03:07:33;;;;;;;3.35;2.35;;;14.50;99.90;;;;;;5074007;28;20063;-74
2022/09/04 03:10:16;;;;;;;5.38;2.67;;;14.50;99.90;;;;;;5074207;28;20141;-75
2022/09/04 03:12:51;;;;;;;3.40;2.70;;;14.60;99.90;;;;;;5073987;28;20053;-75
2022/09/04 03:15:39;;;;;;;5.27;2.70;;;14.50;99.90;;;;;;5074143;28;20084;-72
2022/09/04 03:18:16;;;;;;;8.30;2.33;;;15.10;99.90;;;;;;5074043;28;20048;-72
2022/09/04 03:20:58;;;;;;;8.40;2.72;;;14.50;99.90;;;;;;5073860;28;20044;-74
2022/09/04 03:24:05;;;;;;;4.10;2.60;;;14.60;99.90;;;;;;5073987;28;20037;-73
2022/09/04 03:26:35;;;;;;;5.88;2.47;;;14.50;99.90;;;;;;5073131;28;20056;-71
2022/09/04 03:29:25;;;;;;;7.60;2.50;;;14.20;99.90;;;;;;5073486;28;20128;-74
2022/09/04 03:32:15;;;;;;;5.63;2.53;;;14.20;99.90;;;;;;5073766;28;20113;-73
2022/09/04 03:34:46;;;;;;;3.88;2.55;;;14.50;99.90;;;;;;5073611;28;20432;-74
2022/09/04 03:37:40;;;;;;;5.85;2.63;;;14.60;99.90;;;;;;5073374;28;20045;-75
2022/09/04 03:40:17;;;;;;;6.18;2.83;;;14.50;99.90;;;;;;5073627;28;20457;-72
2022/09/04 03:43:12;;;;;;;4.43;2.70;;;14.00;99.90;;;;;;5072484;28;20466;-76
2022/09/04 03:45:41;;;;;;;7.90;2.72;;;14.40;99.90;;;;;;5073387;28;20511;-74
2022/09/04 03:48:35;;;;;;;5.35;2.40;;;13.90;99.90;;;;;;5073395;28;20050;-76
2022/09/04 03:51:24;;;;;;;5.68;2.65;;;14.20;99.90;;;;;;5073102;28;20127;-72
2022/09/04 03:54:27;;;;;;;4.43;2.60;;;14.40;99.90;;;;;;5073245;28;20048;-76
2022/09/04 03:57:11;;;;;;;5.22;2.20;;;14.10;99.90;;;;;;5073222;28;20059;-76
2022/09/04 03:59:49;;;;;;;6.72;2.72;;;14.00;99.90;;;;;;5073150;28;20393;-75
2022/09/04 04:02:43;;;;;;;5.03;2.90;;;14.00;99.90;;;;;;5071884;28;20503;-74
2022/09/04 04:05:27;;;;;;;5.07;2.80;;;13.80;99.90;;;;;;5072889;28;20498;-74
2022/09/04 04:08:14;;;;;;;6.13;2.80;;;13.90;99.90;;;;;;5073045;28;20109;-73
2022/09/04 04:11:23;;;;;;;3.80;2.60;;;14.10;99.90;;;;;;5072932;28;20044;-70
2022/09/04 04:14:06;;;;;;;4.55;2.67;;;14.10;99.90;;;;;;5071558;28;20045;-71
2022/09/04 04:17:08;;;;;;;3.22;2.42;;;13.60;99.90;;;;;;5072888;28;20052;-73
2022/09/04 04:19:52;;;;;;;3.13;2.35;;;13.80;99.90;;;;;;5072511;28;20047;-76
2022/09/04 04:22:26;;;;;;;4.38;2.80;;;13.80;99.90;;;;;;5072751;28;20056;-75
2022/09/04 04:25:27;;;;;;;7.93;2.88;;;14.20;99.90;;;;;;5072676;28;20041;-71
2022/09/04 04:28:18;;;;;;;3.25;2.60;;;13.50;99.90;;;;;;5072557;28;20052;-72
2022/09/04 04:31:13;;;;;;;4.50;2.70;;;14.00;99.90;;;;;;5072216;28;20386;-71
2022/09/04 04:34:01;;;;;;;7.57;2.78;;;13.90;99.90;;;;;;5071216;28;20067;-72
2022/09/04 04:36:50;;;;;;;4.88;2.75;;;13.90;99.90;;;;;;5072807;28;20203;-71
2022/09/04 04:39:42;;;;;;;6.80;3.47;;;13.80;99.90;;;;;;5072520;28;20045;-73
2022/09/04 04:42:43;;;;;;;5.05;2.60;;;13.90;99.90;;;;;;5072486;28;20736;-76
2022/09/04 04:48:35;;;;;;;6.90;3.00;;;14.10;99.90;;;;;;5071806;28;20546;-75
2022/09/04 04:51:39;;;;;;;6.50;2.70;;;14.30;99.90;;;;;;5072316;28;20053;-74
2022/09/04 04:54:32;;;;;;;5.10;3.08;;;13.90;99.90;;;;;;5071772;28;20053;-74
2022/09/04 04:57:16;;;;;;;5.15;3.05;;;13.90;99.90;;;;;;5072122;28;20094;-73
2022/09/04 05:00:05;;;;;;;4.45;3.08;;;14.00;99.90;;;;;;5072197;28;20131;-72
2022/09/04 05:02:38;;;;;;;5.00;2.90;;;14.10;99.90;;;;;;5071909;28;20052;-74
2022/09/04 05:05:13;;;;;;;3.58;2.80;;;14.00;99.90;;;;;;5072059;28;20110;-72
2022/09/04 05:08:05;;;;;;;3.42;2.80;;;13.80;99.90;;;;;;5071987;28;20056;-74
2022/09/04 05:11:08;;;;;;;3.38;2.63;;;14.20;99.90;;;;;;5070767;28;20052;-72
2022/09/04 05:13:40;;;;;;;5.57;3.08;;;14.10;99.90;;;;;;5071967;28;20049;-73
2022/09/04 05:16:36;;;;;;;3.90;2.63;;;13.80;99.90;;;;;;5071983;28;20369;-75
2022/09/04 05:19:51;;;;;;;6.00;2.85;;;13.60;99.90;;;;;;5071648;28;20048;-74
2022/09/04 05:22:33;;;;;;;3.72;2.80;;;13.70;99.90;;;;;;5049202;28;20127;-72
2022/09/04 05:25:29;;;;;;;4.93;2.83;;;13.90;99.90;;;;;;5069839;28;20068;-71
2022/09/04 05:28:00;;;;;;;3.60;2.95;;;14.00;99.90;;;;;;5071904;28;20074;-75
2022/09/04 05:30:42;;;;;;;4.28;3.20;;;14.20;99.90;;;;;;5070291;28;20155;-74
2022/09/04 05:33:11;;;;;;;6.10;2.70;;;13.70;99.90;;;;;;5071511;28;20052;-77
2022/09/04 05:35:50;;;;;;;10.25;2.80;;;14.10;99.90;;;;;;5071757;28;20384;-75
2022/09/04 05:38:34;;;;;;;5.57;3.00;;;14.00;99.90;;;;;;5071784;28;20079;-76
2022/09/04 05:41:23;;;;;;;7.50;3.05;;;14.60;99.90;;;;;;5071679;28;20052;-71
2022/09/04 05:44:25;;;;;;;4.13;2.60;;;14.10;99.90;;;;;;5072010;28;20049;-72
2022/09/04 05:47:10;;;;;;;4.13;2.95;;;14.30;99.90;;;;;;5071685;28;20051;-74
2022/09/04 05:49:49;;;;;;;6.00;3.10;;;14.30;99.90;;;;;;5070318;28;20430;-71
2022/09/04 05:52:37;;;;;;;5.03;2.90;;;14.50;99.90;;;;;;5070362;28;20058;-74
2022/09/04 05:55:23;;;;;;;4.88;3.20;;;14.40;99.90;;;;;;5071118;28;20051;-72
2022/09/04 05:58:22;;;;;;;4.25;2.80;;;14.50;99.90;;;;;;5071618;28;20105;-74
2022/09/04 06:00:48;;;;;;;9.85;2.90;;;14.60;99.90;;;;;;5071300;28;20052;-75
2022/09/04 06:03:36;;;;;;;7.43;3.00;;;14.40;99.90;;;;;;5071174;28;20085;-75
2022/09/04 06:06:10;;;;;;;5.60;2.97;;;14.60;99.90;;;;;;5061157;28;20082;-73
2022/09/04 06:08:50;;;;;;;5.32;3.15;;;14.70;99.90;;;;;;5075341;28;20106;-71
2022/09/04 06:11:35;;;;;;;4.57;2.97;;;14.60;99.90;;;;;;5075255;28;20049;-72
2022/09/04 06:14:34;;;;;;;2.97;2.60;;;14.90;99.90;;;;;;5075105;28;20044;-73
2022/09/04 06:17:13;;;;;;;5.80;3.15;;;15.10;99.90;;;;;;5074894;28;20090;-74
2022/09/04 06:19:50;;;;;;;2.92;2.58;;;14.90;99.90;;;;;;5057560;28;20127;-75
2022/09/04 06:22:53;;;;;;;4.10;2.92;;;14.80;99.90;;;;;;5075089;28;20123;-74
2022/09/04 06:25:18;;;;;;;5.75;2.90;;;14.60;99.90;;;;;;5075150;28;20087;-76
2022/09/04 06:28:25;;;;;;;4.57;3.20;;;15.20;99.90;;;;;;5075010;28;20396;-74
2022/09/04 06:31:02;;;;;;;4.80;2.95;;;15.10;99.90;;;;;;5056174;28;20065;-73
2022/09/04 06:33:42;;;;;;;4.13;2.95;;;15.00;99.90;;;;;;5073883;28;20084;-76
2022/09/04 06:36:41;;;;;;;5.50;2.90;;;14.90;99.90;;;;;;5074847;28;20133;-69
2022/09/04 06:39:17;;;;;;;6.07;2.80;;;15.00;99.90;;;;;;5062289;28;20556;-73
2022/09/04 06:41:51;;;;;;;6.28;3.25;;;15.30;99.90;;;;;;5065790;28;20102;-72
2022/09/04 06:44:55;;;;;;;4.82;3.10;;;15.20;99.90;;;;;;5072540;28;20036;-75
2022/09/04 06:47:40;;;;;;;7.45;3.30;;;15.10;99.90;;;;;;5071390;28;20091;-74
2022/09/04 06:50:05;;;;;;;3.63;3.03;;;15.70;99.90;;;;;;5068984;28;20048;-72
2022/09/04 06:52:50;;;;;;;4.30;3.00;;;15.70;99.90;;;;;;5072708;28;20181;-74
2022/09/04 06:55:27;;;;;;;4.07;2.97;;;16.00;99.90;;;;;;5069990;28;20052;-75
2022/09/04 06:58:09;;;;;;;6.40;3.25;;;15.90;99.90;;;;;;5071683;28;20048;-69
2022/09/04 07:01:01;;;;;;;6.75;3.47;;;16.10;99.90;;;;;;5068786;28;20078;-74
2022/09/04 07:03:43;;;;;;;3.90;2.78;;;15.90;99.90;;;;;;5070298;28;20052;-72
2022/09/04 07:06:46;;;;;;;7.00;2.80;;;16.30;99.90;;;;;;5069552;28;20045;-72
2022/09/04 07:09:28;;;;;;;4.80;3.13;;;16.10;99.90;;;;;;5069669;28;20063;-69
2022/09/04 07:12:13;;;;;;;4.45;3.22;;;16.50;99.90;;;;;;5072561;28;20049;-74
2022/09/04 07:14:50;;;;;;;8.45;3.20;;;16.50;99.90;;;;;;5068038;28;20048;-68
2022/09/04 07:17:41;;;;;;;7.57;3.80;;;16.70;99.90;;;;;;5069663;28;20055;-74
2022/09/04 07:20:27;;;;;;;8.85;3.13;;;16.50;99.90;;;;;;5072742;28;20055;-73
2022/09/04 07:23:31;;;;;;;6.57;3.23;;;16.80;99.90;;;;;;5070404;28;20056;-71
2022/09/04 07:26:10;;;;;;;5.50;2.80;;;16.60;99.90;;;;;;5070127;28;20285;-70
2022/09/04 07:29:10;;;;;;;4.68;3.20;;;16.80;99.90;;;;;;5072641;28;20557;-73
2022/09/04 07:31:36;;;;;;;7.25;3.10;;;17.00;99.90;;;;;;5070059;28;20048;-71
2022/09/04 07:34:24;;;;;;;;;;;16.90;99.90;;;;;;5071515;28;20063;-72
2022/09/04 07:37:09;;;;;;;4.78;2.88;;;17.20;99.90;;;;;;5044245;28;19939;-70
2022/09/04 07:39:56;;;;;;;8.63;3.13;;;17.00;99.90;;;;;;5051655;28;20091;-65
2022/09/04 07:42:44;;;;;;;3.83;2.88;;;17.30;99.90;;;;;;5052604;28;20124;-67
2022/09/04 07:45:21;;;;;;;4.07;3.00;;;17.40;99.90;;;;;;5052145;28;20063;-67
2022/09/04 07:48:13;;;;;;;;;;;17.40;99.90;;;;;;5053371;28;20049;-63
2022/09/04 07:50:56;;;;;;;4.25;3.30;;;17.40;99.90;;;;;;5028795;28;20312;-64
2022/09/04 07:53:24;;;;;;;6.30;3.15;;;17.50;99.90;;;;;;5052629;28;20094;-67
2022/09/04 07:56:23;;;;;;;5.30;3.03;;;17.50;99.90;;;;;;5052620;28;20055;-68
2022/09/04 07:59:19;;;;;;;8.80;2.88;;;17.90;99.90;;;;;;5052127;28;20076;-65
2022/09/04 08:02:09;;;;;;;4.13;2.85;;;17.90;99.90;;;;;;5051479;28;20141;-68
2022/09/04 08:05:13;;;;;;;3.83;2.80;;;18.00;99.90;;;;;;5052527;28;20124;-67
2022/09/04 08:07:39;;;;;;;5.90;2.75;;;17.90;99.90;;;;;;5049616;28;20087;-69
2022/09/04 08:10:23;;;;;;;;;;;18.10;99.90;;;;;;5052545;28;20049;-67
2022/09/04 08:12:57;;;;;;;5.97;2.70;;;18.30;99.90;;;;;;5052133;28;19931;-67
2022/09/04 08:16:12;;;;;;;5.97;2.88;;;18.00;99.90;;;;;;5052269;28;20087;-73
2022/09/04 08:19:05;;;;;;;5.95;3.22;;;18.50;99.90;;;;;;5043382;28;20459;-69
2022/09/04 08:21:41;;;;;;;2.92;2.63;;;18.80;99.90;;;;;;5051853;28;20053;-69
2022/09/04 08:24:28;;;;;;;8.85;3.10;;;18.90;99.90;;;;;;5051072;28;20511;-67
2022/09/04 08:27:18;;;;;;;7.72;3.00;;;18.80;99.90;;;;;;5052068;28;20135;-68
2022/09/04 08:29:47;;;;;;;6.50;3.33;;;19.10;99.90;;;;;;5051286;28;20110;-65
2022/09/04 08:32:36;;;;;;;9.23;5.53;;;19.10;99.90;;;;;;5051774;28;20057;-70
2022/09/04 08:35:26;;;;;;;6.82;6.13;;;19.40;99.90;;;;;;5051423;28;20049;-69
2022/09/04 08:38:08;;;;;;;3.90;2.67;;;19.40;99.90;;;;;;5051789;28;20057;-67
2022/09/04 08:40:52;;;;;;;5.10;3.00;;;19.70;99.90;;;;;;5051527;28;20045;-77
2022/09/04 08:43:38;;;;;;;5.53;2.90;;;19.80;99.90;;;;;;5051189;28;20122;-67
2022/09/04 08:46:26;;;;;;;4.25;3.00;;;19.80;99.90;;;;;;5051304;28;20052;-71
2022/09/04 08:48:55;;;;;;;2.78;2.47;;;20.00;99.90;;;;;;5048081;28;20065;-66
2022/09/04 08:51:38;;;;;;;5.05;2.65;;;20.50;99.90;;;;;;5061003;28;20040;-69
2022/09/04 08:54:20;;;;;;;3.75;2.90;;;20.00;99.90;;;;;;5071984;28;20059;-69
2022/09/04 08:56:52;;;;;;;10.30;3.13;;;20.20;99.90;;;;;;5072112;28;20099;-68
2022/09/04 08:59:47;;;;;;;6.72;2.90;;;20.80;99.90;;;;;;5072055;28;20040;-69
2022/09/04 09:02:39;;;;;;;4.43;2.70;;;20.70;99.90;;;;;;5070517;28;20496;-69
2022/09/04 09:05:20;;;;;;;6.30;3.03;;;20.80;99.90;;;;;;5072128;28;20045;-66
2022/09/04 09:08:30;;;;;;;3.20;2.70;;;20.80;99.90;;;;;;5071855;28;20041;-68
2022/09/04 09:11:20;;;;;;;5.60;3.25;;;20.80;99.90;;;;;;5070855;28;20052;-67
2022/09/04 09:13:58;;;;;;;4.60;2.70;;;20.80;99.90;;;;;;5067923;28;20040;-71
2022/09/04 09:16:31;;;;;;;4.82;2.60;;;21.20;99.90;;;;;;5070073;28;20080;-68
2022/09/04 09:19:15;;;;;;;3.90;2.40;;;21.60;99.90;;;;;;5070664;28;20056;-66
2022/09/04 09:22:27;;;;;;;11.88;7.70;;;21.60;99.90;;;;;;5069996;28;20041;-70
2022/09/04 09:25:19;;;;;;;5.80;3.13;;;21.80;99.90;;;;;;5070909;28;20056;-68
2022/09/04 09:28:22;;;;;;;4.82;3.03;;;21.70;99.90;;;;;;5072248;28;20105;-69
2022/09/04 09:31:11;;;;;;;3.85;2.20;;;21.70;99.30;;;;;;5071825;28;20100;-67
2022/09/04 09:33:40;;;;;;;4.97;2.55;;;22.00;99.50;;;;;;5071724;28;20109;-68
2022/09/04 09:36:28;;;;;;;4.90;2.65;;;22.30;99.60;;;;;;5071797;28;20052;-69
2022/09/04 09:39:06;;;;;;;4.65;2.58;;;21.90;99.30;;;;;;5071552;28;20060;-65
2022/09/04 09:41:52;;;;;;;6.60;2.38;;;22.40;98.70;;;;;;5072916;28;20488;-65
2022/09/04 09:44:48;;;;;;;8.63;2.38;;;22.40;98.80;;;;;;5075820;28;20488;-68
2022/09/04 09:48:09;;;;;;;2.83;1.95;;;22.30;98.50;;;;;;5074706;28;20497;-65
2022/09/04 09:50:47;;;;;;;4.93;2.28;;;22.60;98.20;;;;;;5052117;28;20052;-66
2022/09/04 09:53:32;;;;;;;2.88;2.15;;;22.60;98.50;;;;;;5074085;28;20041;-69
2022/09/04 09:56:22;;;;;;;5.53;2.33;;;22.80;99.10;;;;;;5075609;28;20369;-68
2022/09/04 09:59:03;;;;;;;5.50;2.05;;;22.90;98.70;;;;;;5075533;28;20060;-67
2022/09/04 10:01:53;;;;;;;4.57;2.13;;;23.20;98.40;;;;;;5075223;28;20480;-67
2022/09/04 10:04:43;;;;;;;5.25;2.20;;;23.20;97.50;;;;;;5075513;28;20052;-67
2022/09/04 10:07:18;;;;;;;2.78;2.45;;;23.20;97.40;;;;;;5074905;28;20504;-65
2022/09/04 10:10:09;;;;;;;3.03;1.80;;;23.00;97.40;;;;;;5075715;28;20048;-68
2022/09/04 10:13:12;;;;;;;4.35;2.30;;;23.40;97.70;;;;;;5074325;28;20052;-67
2022/09/04 10:15:51;;;;;;;3.55;1.92;;;23.50;97.60;;;;;;5075180;28;20056;-69
2022/09/04 10:18:55;;;;;;;7.32;1.90;;;23.90;97.10;;;;;;5075137;28;20115;-65
2022/09/04 10:21:46;;;;;;;2.22;1.98;;;23.60;96.20;;;;;;5068893;28;20064;-67
2022/09/04 10:24:39;;;;;;;3.72;2.15;;;23.60;96.60;;;;;;5072853;28;20060;-65
2022/09/04 10:27:20;;;;;;;4.90;2.17;;;24.00;96.20;;;;;;5072287;28;20048;-65
2022/09/04 10:29:58;;;;;;;5.85;1.95;;;23.70;96.00;;;;;;5067929;28;20057;-66
2022/09/04 10:32:47;;;;;;;3.72;2.60;;;24.10;96.00;;;;;;5070506;28;20056;-70
2022/09/04 10:35:28;;;;;;;4.28;2.00;;;23.90;95.60;;;;;;5072599;28;20052;-67
2022/09/04 10:38:23;;;;;;;4.35;2.28;;;24.20;96.10;;;;;;5070154;28;20052;-67
2022/09/04 10:41:01;;;;;;;3.50;1.90;;;24.00;96.40;;;;;;5069708;28;20091;-66
2022/09/04 10:43:38;;;;;;;3.13;2.30;;;24.40;96.40;;;;;;5051539;28;20049;-66
2022/09/04 10:46:28;;;;;;;3.88;2.40;;;24.40;95.70;;;;;;5054668;28;20183;-67
2022/09/04 10:48:59;;;;;;;3.40;1.60;;;24.60;96.10;;;;;;5054689;28;20476;-68
2022/09/04 10:51:48;;;;;;;6.15;1.83;;;24.60;96.40;;;;;;5053792;28;20080;-68
2022/09/04 10:54:49;;;;;;;2.00;1.80;;;24.70;95.70;;;;;;5054186;28;20453;-67
2022/09/04 10:57:40;;;;;;;4.40;1.85;;;24.80;95.70;;;;;;5054422;28;20056;-66
2022/09/04 11:00:08;;;;;;;2.13;1.60;;;24.60;95.10;;;;;;5054103;28;20053;-67
2022/09/04 11:02:53;;;;;;;3.08;1.70;;;24.60;95.80;;;;;;5054369;28;20048;-67
2022/09/04 11:05:19;;;;;;;7.13;1.85;;;24.90;95.10;;;;;;5054110;28;20198;-66
2022/09/04 11:08:21;;;;;;;4.35;1.75;;;25.00;95.30;;;;;;5054278;28;20132;-66
2022/09/04 11:11:06;;;;;;;3.10;1.67;;;25.30;94.60;;;;;;5054298;28;20055;-64
2022/09/04 11:13:43;;;;;;;4.10;1.80;;;25.30;94.60;;;;;;5054067;28;20048;-65
2022/09/04 11:16:22;;;;;;;4.43;1.92;;;25.20;94.10;;;;;;5054121;28;20044;-66
2022/09/04 11:19:01;;;;;;;6.85;2.08;;;25.40;94.00;;;;;;5054144;28;20052;-68
2022/09/04 11:21:53;;;;;;;3.70;2.33;;;25.10;93.70;;;;;;5061252;28;20083;-67
2022/09/04 11:24:37;;;;;;;5.00;1.80;;;25.50;94.30;;;;;;5071231;28;20072;-66
2022/09/04 11:27:21;;;;;;;5.25;2.22;;;25.80;94.10;;;;;;5073947;28;20045;-66
2022/09/04 11:30:16;;;;;;;2.15;1.60;;;25.90;93.50;;;;;;5073360;28;20489;-65
2022/09/04 11:33:10;;;;;;;4.35;1.92;;;25.70;93.10;;;;;;5073825;28;20705;-69
2022/09/04 11:36:23;;;;;;;3.75;1.60;;;25.60;93.70;;;;;;5073496;28;20048;-66
2022/09/04 11:39:17;;;;;;;4.13;1.80;;;25.50;93.30;;;;;;5056523;28;20060;-67
2022/09/04 11:42:07;;;;;;;5.80;1.80;;;25.70;93.70;;;;;;5073684;28;20067;-69
2022/09/04 11:44:48;;;;;;;2.42;1.60;;;25.50;93.60;;;;;;5073594;28;20048;-67
2022/09/04 11:47:35;;;;;;;3.45;2.00;;;25.70;93.80;;;;;;5073595;28;20134;-69
2022/09/04 11:50:17;;;;;;;3.45;1.80;;;26.00;93.70;;;;;;5073232;28;20045;-67
2022/09/04 11:53:10;;;;;;;2.63;1.85;;;25.80;93.90;;;;;;5073356;28;20040;-66
2022/09/04 11:56:13;;;;;;;3.72;1.98;;;26.00;93.70;;;;;;5073388;28;20131;-66
2022/09/04 11:59:16;;;;;;;6.10;2.42;;;26.30;93.20;;;;;;5073242;28;20063;-67
2022/09/04 12:02:02;;;;;;;2.38;1.90;;;26.20;92.90;;;;;;5073479;28;20093;-67
2022/09/04 12:04:57;;;;;;;6.32;1.80;;;26.30;93.20;;;;;;5070858;28;20053;-67
2022/09/04 12:07:43;;;;;;;1.92;1.65;;;26.40;93.30;;;;;;5073146;28;20048;-64
2022/09/04 12:10:22;;;;;;;3.90;1.80;;;26.40;92.70;;;;;;5073021;28;20171;-69
2022/09/04 12:13:01;;;;;;;2.05;1.70;;;26.50;93.30;;;;;;5072978;28;20181;-64
2022/09/04 12:16:00;;;;;;;4.13;2.08;;;26.40;92.50;;;;;;5072910;28;20036;-64
2022/09/04 12:18:53;;;;;;;2.72;1.60;;;26.30;92.90;;;;;;5072602;28;20040;-66
2022/09/04 12:21:34;;;;;;;3.22;1.92;;;26.60;92.70;;;;;;5072832;28;20099;-66
2022/09/04 12:24:03;;;;;;;2.33;1.60;;;26.70;92.60;;;;;;5072851;28;20053;-68
2022/09/04 12:26:48;;;;;;;5.53;2.15;;;26.60;93.20;;;;;;5072607;28;20049;-64
2022/09/04 12:29:38;;;;;;;3.53;1.90;;;26.60;92.50;;;;;;5072572;28;20064;-66
2022/09/04 12:32:37;;;;;;;3.25;1.63;;;26.30;92.60;;;;;;5072064;28;20562;-65
2022/09/04 12:35:41;;;;;;;3.67;1.80;;;26.20;92.00;;;;;;5072512;28;20044;-66
2022/09/04 12:38:07;;;;;;;4.35;2.00;;;26.20;92.80;;;;;;5072537;28;20048;-64
2022/09/04 12:40:51;;;;;;;4.40;2.25;;;26.50;93.00;;;;;;5071155;28;20047;-66
2022/09/04 12:43:49;;;;;;;4.90;2.15;;;26.50;92.60;;;;;;5072369;28;20044;-65
2022/09/04 12:46:25;;;;;;;3.03;1.60;;;26.60;93.20;;;;;;5059827;28;20531;-66
2022/09/04 12:49:25;;;;;;;2.15;1.88;;;26.90;92.40;;;;;;5072401;28;20044;-65
2022/09/04 12:51:59;;;;;;;4.45;1.83;;;27.00;91.80;;;;;;5072313;28;20048;-67
2022/09/04 12:54:42;;;;;;;3.28;1.70;;;27.00;92.10;;;;;;5072273;28;20044;-67
2022/09/04 12:57:31;;;;;;;3.42;1.80;;;26.80;92.20;;;;;;5072266;28;20052;-67
2022/09/04 13:00:11;;;;;;;5.78;1.80;;;27.00;92.10;;;;;;5072639;28;20054;-69
2022/09/04 13:02:47;;;;;;;4.45;1.73;;;27.20;92.90;;;;;;5070739;28;20048;-64
2022/09/04 13:05:41;;;;;;;4.10;1.83;;;27.20;91.60;;;;;;5072199;28;20087;-66
2022/09/04 13:08:25;;;;;;;5.03;1.92;;;27.10;91.80;;;;;;5072217;28;20119;-65
2022/09/04 13:11:19;;;;;;;2.75;1.65;;;27.30;92.60;;;;;;5072013;28;20106;-66
2022/09/04 13:14:06;;;;;;;4.57;1.95;;;27.00;91.60;;;;;;5071923;28;20098;-67
2022/09/04 13:16:48;;;;;;;3.85;2.00;;;27.10;91.60;;;;;;5071597;28;20051;-65
2022/09/04 13:19:24;;;;;;;4.38;1.70;;;27.40;91.60;;;;;;5072002;28;20048;-66
2022/09/04 13:22:10;;;;;;;3.67;2.03;;;27.30;92.00;;;;;;5072014;28;20044;-66
2022/09/04 13:24:50;;;;;;;4.30;1.50;;;27.50;91.30;;;;;;5071953;28;20131;-67
2022/09/04 13:27:47;;;;;;;3.80;1.90;;;27.90;91.60;;;;;;5071907;28;20167;-65
2022/09/04 13:30:20;;;;;;;6.00;1.70;;;27.50;91.10;;;;;;5071590;28;20056;-66
2022/09/04 13:33:11;;;;;;;1.73;1.48;;;27.80;91.80;;;;;;5071917;28;20051;-67
2022/09/04 13:36:10;;;;;;;3.38;1.70;;;27.70;91.00;;;;;;5071906;28;20431;-66
2022/09/04 13:39:01;;;;;;;8.13;1.92;;;28.00;91.00;;;;;;5071883;28;20040;-65
2022/09/04 13:41:58;;;;;;;4.22;2.25;;;27.60;90.70;;;;;;5070547;28;20052;-66
2022/09/04 13:44:37;;;;;;;5.60;1.80;;;27.90;91.70;;;;;;5069983;28;20045;-67
2022/09/04 13:47:08;;;;;;;2.35;1.55;;;27.70;91.00;;;;;;5071802;28;20083;-65
2022/09/04 13:49:57;;;;;;;1.85;1.55;;;28.40;91.20;;;;;;5071694;28;20396;-65
2022/09/04 13:52:39;;;;;;;2.47;1.80;;;28.20;90.70;;;;;;5071791;28;20048;-64
2022/09/04 13:55:12;;;;;;;2.78;2.15;;;28.20;90.40;;;;;;5071943;28;20143;-68
2022/09/04 13:58:12;;;;;;;1.67;1.52;;;28.40;91.10;;;;;;5070848;28;20088;-65
2022/09/04 14:00:55;;;;;;;2.70;1.70;;;28.20;90.80;;;;;;5063440;28;20057;-63
2022/09/04 14:03:36;;;;;;;3.67;1.70;;;28.40;90.00;;;;;;5071644;28;20048;-66
2022/09/04 14:06:06;;;;;;;4.70;1.60;;;28.30;88.90;;;;;;5071598;28;20079;-66
2022/09/04 14:08:34;;;;;;;4.15;1.90;;;28.30;90.00;;;;;;5071544;28;20044;-67
2022/09/04 14:11:38;;;;;;;2.97;1.75;;;28.20;90.10;;;;;;5070336;28;20049;-65
2022/09/04 14:14:29;;;;;;;3.40;1.55;;;28.20;89.70;;;;;;5061593;28;20064;-66
2022/09/04 14:16:58;;;;;;;4.93;1.73;;;28.40;90.10;;;;;;5071490;28;20168;-66
2022/09/04 14:19:47;;;;;;;2.60;1.65;;;28.40;90.50;;;;;;5071421;28;20040;-65
2022/09/04 14:22:36;;;;;;;4.90;1.83;;;28.40;90.00;;;;;;5071367;28;20087;-66
2022/09/04 14:25:17;;;;;;;6.28;1.80;;;28.50;88.90;;;;;;5071377;28;20052;-66
2022/09/04 14:28:02;;;;;;;3.28;1.63;;;28.30;89.00;;;;;;5072039;28;20048;-67